sensor_id;sensor_type;location;lat;lon;timestamp;P1;durP1;ratioP1;P2;durP2;ratioP2
10761;SDS011;5433;50.862;4.320;2023-02-28T00:00:48;8.82;;;5.95;;
10761;SDS011;5433;50.862;4.320;2023-02-28T00:03:14;7.00;;;4.53;;
10761;SDS011;5433;50.862;4.320;2023-02-28T00:05:40;7.72;;;5.75;;
10761;SDS011;5433;50.862;4.320;2023-02-28T00:08:07;6.70;;;4.65;;
10761;SDS011;5433;50.862;4.320;2023-02-28T00:10:33;9.32;;;4.18;;
10761;SDS011;5433;50.862;4.320;2023-02-28T00:13:03;8.57;;;5.68;;
10761;SDS011;5433;50.862;4.320;2023-02-28T00:15:29;6.18;;;4.63;;
10761;SDS011;5433;50.862;4.320;2023-02-28T00:17:55;5.90;;;4.43;;
10761;SDS011;5433;50.862;4.320;2023-02-28T00:20:21;7.65;;;4.20;;
10761;SDS011;5433;50.862;4.320;2023-02-28T00:22:48;14.75;;;7.15;;
10761;SDS011;5433;50.862;4.320;2023-02-28T00:25:16;5.97;;;4.68;;
10761;SDS011;5433;50.862;4.320;2023-02-28T00:27:43;18.08;;;8.68;;
10761;SDS011;5433;50.862;4.320;2023-02-28T00:30:14;13.38;;;7.22;;
10761;SDS011;5433;50.862;4.320;2023-02-28T00:32:41;6.15;;;4.38;;
10761;SDS011;5433;50.862;4.320;2023-02-28T00:35:07;6.68;;;4.28;;
10761;SDS011;5433;50.862;4.320;2023-02-28T00:37:33;6.88;;;4.30;;
10761;SDS011;5433;50.862;4.320;2023-02-28T00:39:59;22.92;;;11.80;;
10761;SDS011;5433;50.862;4.320;2023-02-28T00:42:25;7.82;;;4.53;;
10761;SDS011;5433;50.862;4.320;2023-02-28T00:44:51;7.68;;;4.35;;
10761;SDS011;5433;50.862;4.320;2023-02-28T00:47:17;6.88;;;4.05;;
10761;SDS011;5433;50.862;4.320;2023-02-28T00:49:43;5.45;;;4.35;;
10761;SDS011;5433;50.862;4.320;2023-02-28T00:52:09;5.85;;;4.43;;
10761;SDS011;5433;50.862;4.320;2023-02-28T00:54:35;5.60;;;4.47;;
10761;SDS011;5433;50.862;4.320;2023-02-28T00:57:02;6.95;;;4.60;;
10761;SDS011;5433;50.862;4.320;2023-02-28T00:59:28;6.43;;;4.70;;
10761;SDS011;5433;50.862;4.320;2023-02-28T01:01:54;10.00;;;4.50;;
10761;SDS011;5433;50.862;4.320;2023-02-28T01:04:20;5.82;;;4.53;;
10761;SDS011;5433;50.862;4.320;2023-02-28T01:06:46;5.80;;;4.45;;
10761;SDS011;5433;50.862;4.320;2023-02-28T01:09:12;9.35;;;4.90;;
10761;SDS011;5433;50.862;4.320;2023-02-28T01:11:38;6.40;;;4.82;;
10761;SDS011;5433;50.862;4.320;2023-02-28T01:14:06;5.18;;;4.38;;
10761;SDS011;5433;50.862;4.320;2023-02-28T01:16:32;5.57;;;4.30;;
10761;SDS011;5433;50.862;4.320;2023-02-28T01:18:58;5.15;;;4.60;;
10761;SDS011;5433;50.862;4.320;2023-02-28T01:21:24;8.43;;;4.43;;
10761;SDS011;5433;50.862;4.320;2023-02-28T01:23:50;6.57;;;4.63;;
10761;SDS011;5433;50.862;4.320;2023-02-28T01:26:18;7.70;;;4.80;;
10761;SDS011;5433;50.862;4.320;2023-02-28T01:28:44;5.93;;;4.65;;
10761;SDS011;5433;50.862;4.320;2023-02-28T01:31:11;7.32;;;5.00;;
10761;SDS011;5433;50.862;4.320;2023-02-28T01:33:37;7.38;;;5.50;;
10761;SDS011;5433;50.862;4.320;2023-02-28T01:36:04;7.43;;;4.95;;
10761;SDS011;5433;50.862;4.320;2023-02-28T01:38:31;5.78;;;4.90;;
10761;SDS011;5433;50.862;4.320;2023-02-28T01:40:57;6.45;;;4.80;;
10761;SDS011;5433;50.862;4.320;2023-02-28T01:43:28;7.22;;;4.85;;
10761;SDS011;5433;50.862;4.320;2023-02-28T01:45:55;6.25;;;4.65;;
10761;SDS011;5433;50.862;4.320;2023-02-28T01:48:23;6.32;;;4.80;;
10761;SDS011;5433;50.862;4.320;2023-02-28T01:50:51;6.75;;;4.80;;
10761;SDS011;5433;50.862;4.320;2023-02-28T01:53:19;5.72;;;4.75;;
10761;SDS011;5433;50.862;4.320;2023-02-28T01:55:48;7.30;;;4.63;;
10761;SDS011;5433;50.862;4.320;2023-02-28T01:58:15;7.35;;;5.40;;
10761;SDS011;5433;50.862;4.320;2023-02-28T02:00:41;8.23;;;5.15;;
10761;SDS011;5433;50.862;4.320;2023-02-28T02:03:08;7.28;;;5.60;;
10761;SDS011;5433;50.862;4.320;2023-02-28T02:05:36;8.35;;;5.20;;
10761;SDS011;5433;50.862;4.320;2023-02-28T02:08:04;6.82;;;5.22;;
10761;SDS011;5433;50.862;4.320;2023-02-28T02:10:32;7.78;;;5.43;;
10761;SDS011;5433;50.862;4.320;2023-02-28T02:13:19;8.75;;;5.53;;
10761;SDS011;5433;50.862;4.320;2023-02-28T02:23:53;8.27;;;5.40;;
10761;SDS011;5433;50.862;4.320;2023-02-28T02:29:17;10.30;;;5.53;;
10761;SDS011;5433;50.862;4.320;2023-02-28T02:32:02;12.55;;;6.15;;
10761;SDS011;5433;50.862;4.320;2023-02-28T02:34:42;7.85;;;5.22;;
10761;SDS011;5433;50.862;4.320;2023-02-28T02:37:18;6.75;;;5.60;;
10761;SDS011;5433;50.862;4.320;2023-02-28T02:39:57;7.22;;;5.40;;
10761;SDS011;5433;50.862;4.320;2023-02-28T02:42:36;8.50;;;5.88;;
10761;SDS011;5433;50.862;4.320;2023-02-28T02:45:09;10.07;;;5.72;;
10761;SDS011;5433;50.862;4.320;2023-02-28T02:47:37;8.68;;;6.28;;
10761;SDS011;5433;50.862;4.320;2023-02-28T02:50:05;9.93;;;6.30;;
10761;SDS011;5433;50.862;4.320;2023-02-28T02:52:36;7.53;;;5.90;;
10761;SDS011;5433;50.862;4.320;2023-02-28T02:55:05;7.78;;;5.95;;
10761;SDS011;5433;50.862;4.320;2023-02-28T02:57:34;7.80;;;6.00;;
10761;SDS011;5433;50.862;4.320;2023-02-28T03:00:02;9.38;;;6.40;;
10761;SDS011;5433;50.862;4.320;2023-02-28T03:02:30;7.75;;;6.22;;
10761;SDS011;5433;50.862;4.320;2023-02-28T03:05:00;8.20;;;6.10;;
10761;SDS011;5433;50.862;4.320;2023-02-28T03:07:27;8.75;;;6.22;;
10761;SDS011;5433;50.862;4.320;2023-02-28T03:09:53;11.43;;;6.45;;
10761;SDS011;5433;50.862;4.320;2023-02-28T03:12:19;10.05;;;6.68;;
10761;SDS011;5433;50.862;4.320;2023-02-28T03:17:21;9.00;;;6.32;;
10761;SDS011;5433;50.862;4.320;2023-02-28T03:25:25;9.20;;;6.80;;
10761;SDS011;5433;50.862;4.320;2023-02-28T03:30:23;8.07;;;6.63;;
10761;SDS011;5433;50.862;4.320;2023-02-28T03:32:52;7.70;;;6.07;;
10761;SDS011;5433;50.862;4.320;2023-02-28T03:35:21;9.68;;;6.63;;
10761;SDS011;5433;50.862;4.320;2023-02-28T03:37:56;10.60;;;6.75;;
10761;SDS011;5433;50.862;4.320;2023-02-28T03:40:25;9.10;;;6.50;;
10761;SDS011;5433;50.862;4.320;2023-02-28T03:42:55;8.30;;;6.18;;
10761;SDS011;5433;50.862;4.320;2023-02-28T03:45:26;10.15;;;6.43;;
10761;SDS011;5433;50.862;4.320;2023-02-28T03:47:55;8.93;;;6.68;;
10761;SDS011;5433;50.862;4.320;2023-02-28T03:50:24;10.23;;;6.65;;
10761;SDS011;5433;50.862;4.320;2023-02-28T03:52:55;11.23;;;6.43;;
10761;SDS011;5433;50.862;4.320;2023-02-28T03:55:26;9.77;;;6.85;;
10761;SDS011;5433;50.862;4.320;2023-02-28T04:00:51;10.88;;;6.82;;
10761;SDS011;5433;50.862;4.320;2023-02-28T04:03:20;9.50;;;6.57;;
10761;SDS011;5433;50.862;4.320;2023-02-28T04:05:53;9.32;;;6.57;;
10761;SDS011;5433;50.862;4.320;2023-02-28T04:08:20;9.52;;;6.53;;
10761;SDS011;5433;50.862;4.320;2023-02-28T04:10:48;10.38;;;6.35;;
10761;SDS011;5433;50.862;4.320;2023-02-28T04:13:15;10.48;;;6.68;;
10761;SDS011;5433;50.862;4.320;2023-02-28T04:15:41;9.45;;;6.43;;
10761;SDS011;5433;50.862;4.320;2023-02-28T04:18:09;10.55;;;6.22;;
10761;SDS011;5433;50.862;4.320;2023-02-28T04:20:35;9.25;;;6.90;;
10761;SDS011;5433;50.862;4.320;2023-02-28T04:23:01;8.90;;;6.80;;
10761;SDS011;5433;50.862;4.320;2023-02-28T04:25:27;8.85;;;6.57;;
10761;SDS011;5433;50.862;4.320;2023-02-28T04:27:53;10.32;;;6.85;;
10761;SDS011;5433;50.862;4.320;2023-02-28T04:30:19;8.77;;;5.88;;
10761;SDS011;5433;50.862;4.320;2023-02-28T04:32:45;10.80;;;7.10;;
10761;SDS011;5433;50.862;4.320;2023-02-28T04:35:11;9.48;;;7.10;;
10761;SDS011;5433;50.862;4.320;2023-02-28T04:37:37;10.02;;;6.25;;
10761;SDS011;5433;50.862;4.320;2023-02-28T04:40:03;9.68;;;7.03;;
10761;SDS011;5433;50.862;4.320;2023-02-28T04:42:29;9.20;;;6.78;;
10761;SDS011;5433;50.862;4.320;2023-02-28T04:45:00;9.02;;;6.63;;
10761;SDS011;5433;50.862;4.320;2023-02-28T04:47:26;9.15;;;6.75;;
10761;SDS011;5433;50.862;4.320;2023-02-28T04:49:52;9.13;;;6.70;;
10761;SDS011;5433;50.862;4.320;2023-02-28T04:52:18;10.43;;;6.93;;
10761;SDS011;5433;50.862;4.320;2023-02-28T04:54:44;10.13;;;6.90;;
10761;SDS011;5433;50.862;4.320;2023-02-28T04:57:10;10.20;;;7.20;;
10761;SDS011;5433;50.862;4.320;2023-02-28T04:59:36;9.45;;;6.55;;
10761;SDS011;5433;50.862;4.320;2023-02-28T05:02:03;10.07;;;6.45;;
10761;SDS011;5433;50.862;4.320;2023-02-28T05:04:32;9.93;;;7.50;;
10761;SDS011;5433;50.862;4.320;2023-02-28T05:06:59;9.95;;;7.13;;
10761;SDS011;5433;50.862;4.320;2023-02-28T05:09:25;9.98;;;7.32;;
10761;SDS011;5433;50.862;4.320;2023-02-28T05:11:51;10.52;;;7.70;;
10761;SDS011;5433;50.862;4.320;2023-02-28T05:14:17;9.07;;;6.93;;
10761;SDS011;5433;50.862;4.320;2023-02-28T05:16:43;8.27;;;6.13;;
10761;SDS011;5433;50.862;4.320;2023-02-28T05:19:09;11.07;;;7.60;;
10761;SDS011;5433;50.862;4.320;2023-02-28T05:21:39;9.15;;;6.93;;
10761;SDS011;5433;50.862;4.320;2023-02-28T05:24:07;9.43;;;7.10;;
10761;SDS011;5433;50.862;4.320;2023-02-28T05:26:37;11.05;;;6.85;;
10761;SDS011;5433;50.862;4.320;2023-02-28T05:29:04;9.85;;;6.93;;
10761;SDS011;5433;50.862;4.320;2023-02-28T05:31:30;11.95;;;7.35;;
10761;SDS011;5433;50.862;4.320;2023-02-28T05:33:56;9.25;;;6.93;;
10761;SDS011;5433;50.862;4.320;2023-02-28T05:36:22;12.55;;;7.32;;
10761;SDS011;5433;50.862;4.320;2023-02-28T05:38:49;10.40;;;6.60;;
10761;SDS011;5433;50.862;4.320;2023-02-28T05:41:15;10.98;;;6.95;;
10761;SDS011;5433;50.862;4.320;2023-02-28T05:43:41;10.93;;;7.25;;
10761;SDS011;5433;50.862;4.320;2023-02-28T05:46:08;10.38;;;7.13;;
10761;SDS011;5433;50.862;4.320;2023-02-28T05:48:35;10.18;;;6.93;;
10761;SDS011;5433;50.862;4.320;2023-02-28T05:51:02;11.32;;;7.10;;
10761;SDS011;5433;50.862;4.320;2023-02-28T05:53:28;10.52;;;7.05;;
10761;SDS011;5433;50.862;4.320;2023-02-28T05:55:54;9.35;;;7.00;;
10761;SDS011;5433;50.862;4.320;2023-02-28T05:58:20;11.25;;;7.00;;
10761;SDS011;5433;50.862;4.320;2023-02-28T06:00:47;10.13;;;7.03;;
10761;SDS011;5433;50.862;4.320;2023-02-28T06:03:13;8.40;;;6.13;;
10761;SDS011;5433;50.862;4.320;2023-02-28T06:05:39;11.15;;;6.95;;
10761;SDS011;5433;50.862;4.320;2023-02-28T06:08:05;9.40;;;6.85;;
10761;SDS011;5433;50.862;4.320;2023-02-28T06:10:32;11.60;;;7.03;;
10761;SDS011;5433;50.862;4.320;2023-02-28T06:13:02;11.70;;;7.10;;
10761;SDS011;5433;50.862;4.320;2023-02-28T06:15:28;11.18;;;6.22;;
10761;SDS011;5433;50.862;4.320;2023-02-28T06:17:54;9.57;;;6.57;;
10761;SDS011;5433;50.862;4.320;2023-02-28T06:20:24;7.78;;;6.40;;
10761;SDS011;5433;50.862;4.320;2023-02-28T06:22:53;9.40;;;5.68;;
10761;SDS011;5433;50.862;4.320;2023-02-28T06:25:21;9.02;;;6.43;;
10761;SDS011;5433;50.862;4.320;2023-02-28T06:27:47;9.98;;;6.70;;
10761;SDS011;5433;50.862;4.320;2023-02-28T06:30:14;9.00;;;6.40;;
10761;SDS011;5433;50.862;4.320;2023-02-28T06:32:40;55.75;;;34.63;;
10761;SDS011;5433;50.862;4.320;2023-02-28T06:35:06;9.82;;;7.13;;
10761;SDS011;5433;50.862;4.320;2023-02-28T06:37:32;9.70;;;6.85;;
10761;SDS011;5433;50.862;4.320;2023-02-28T06:39:58;10.60;;;6.35;;
10761;SDS011;5433;50.862;4.320;2023-02-28T06:42:24;9.60;;;7.20;;
10761;SDS011;5433;50.862;4.320;2023-02-28T06:44:53;9.27;;;6.78;;
10761;SDS011;5433;50.862;4.320;2023-02-28T06:47:19;11.35;;;7.65;;
10761;SDS011;5433;50.862;4.320;2023-02-28T06:49:45;9.02;;;6.53;;
10761;SDS011;5433;50.862;4.320;2023-02-28T06:52:11;8.80;;;5.63;;
10761;SDS011;5433;50.862;4.320;2023-02-28T06:54:37;19.90;;;13.18;;
10761;SDS011;5433;50.862;4.320;2023-02-28T06:57:03;8.45;;;6.30;;
10761;SDS011;5433;50.862;4.320;2023-02-28T06:59:29;9.95;;;6.65;;
10761;SDS011;5433;50.862;4.320;2023-02-28T07:01:56;8.40;;;5.55;;
10761;SDS011;5433;50.862;4.320;2023-02-28T07:04:22;9.75;;;6.20;;
10761;SDS011;5433;50.862;4.320;2023-02-28T07:06:48;27.58;;;17.85;;
10761;SDS011;5433;50.862;4.320;2023-02-28T07:09:14;12.85;;;6.80;;
10761;SDS011;5433;50.862;4.320;2023-02-28T07:11:40;12.75;;;8.00;;
10761;SDS011;5433;50.862;4.320;2023-02-28T07:14:07;10.23;;;5.90;;
10761;SDS011;5433;50.862;4.320;2023-02-28T07:16:33;12.68;;;6.38;;
10761;SDS011;5433;50.862;4.320;2023-02-28T07:18:59;10.57;;;8.15;;
10761;SDS011;5433;50.862;4.320;2023-02-28T07:21:26;10.90;;;7.18;;
10761;SDS011;5433;50.862;4.320;2023-02-28T07:23:52;12.57;;;8.15;;
10761;SDS011;5433;50.862;4.320;2023-02-28T07:26:18;12.30;;;6.05;;
10761;SDS011;5433;50.862;4.320;2023-02-28T07:28:45;17.42;;;6.63;;
10761;SDS011;5433;50.862;4.320;2023-02-28T07:31:12;8.80;;;6.32;;
10761;SDS011;5433;50.862;4.320;2023-02-28T07:33:42;8.30;;;6.20;;
10761;SDS011;5433;50.862;4.320;2023-02-28T07:36:12;9.07;;;6.35;;
10761;SDS011;5433;50.862;4.320;2023-02-28T07:38:40;8.70;;;6.22;;
10761;SDS011;5433;50.862;4.320;2023-02-28T07:41:09;12.43;;;6.13;;
10761;SDS011;5433;50.862;4.320;2023-02-28T07:43:36;10.55;;;6.35;;
10761;SDS011;5433;50.862;4.320;2023-02-28T07:46:07;9.13;;;6.22;;
10761;SDS011;5433;50.862;4.320;2023-02-28T07:48:33;10.02;;;6.50;;
10761;SDS011;5433;50.862;4.320;2023-02-28T07:50:59;8.88;;;5.75;;
10761;SDS011;5433;50.862;4.320;2023-02-28T07:53:26;11.38;;;5.75;;
10761;SDS011;5433;50.862;4.320;2023-02-28T07:55:56;7.57;;;5.47;;
10761;SDS011;5433;50.862;4.320;2023-02-28T07:58:22;9.18;;;5.93;;
10761;SDS011;5433;50.862;4.320;2023-02-28T08:00:49;8.15;;;4.93;;
10761;SDS011;5433;50.862;4.320;2023-02-28T08:03:15;9.13;;;5.20;;
10761;SDS011;5433;50.862;4.320;2023-02-28T08:05:41;11.55;;;5.63;;
10761;SDS011;5433;50.862;4.320;2023-02-28T08:08:07;8.07;;;5.63;;
10761;SDS011;5433;50.862;4.320;2023-02-28T08:10:33;8.90;;;4.97;;
10761;SDS011;5433;50.862;4.320;2023-02-28T08:12:59;6.75;;;4.43;;
10761;SDS011;5433;50.862;4.320;2023-02-28T08:15:26;6.80;;;4.50;;
10761;SDS011;5433;50.862;4.320;2023-02-28T08:17:52;5.15;;;3.75;;
10761;SDS011;5433;50.862;4.320;2023-02-28T08:20:18;6.00;;;3.67;;
10761;SDS011;5433;50.862;4.320;2023-02-28T08:22:44;4.38;;;3.13;;
10761;SDS011;5433;50.862;4.320;2023-02-28T08:25:10;10.05;;;4.47;;
10761;SDS011;5433;50.862;4.320;2023-02-28T08:27:36;6.93;;;4.20;;
10761;SDS011;5433;50.862;4.320;2023-02-28T08:30:05;3.70;;;3.03;;
10761;SDS011;5433;50.862;4.320;2023-02-28T08:32:32;6.53;;;3.85;;
10761;SDS011;5433;50.862;4.320;2023-02-28T08:34:58;5.30;;;3.90;;
10761;SDS011;5433;50.862;4.320;2023-02-28T08:37:25;5.00;;;3.60;;
10761;SDS011;5433;50.862;4.320;2023-02-28T08:39:53;5.40;;;3.08;;
10761;SDS011;5433;50.862;4.320;2023-02-28T08:42:19;5.82;;;3.47;;
10761;SDS011;5433;50.862;4.320;2023-02-28T08:44:45;3.33;;;2.10;;
10761;SDS011;5433;50.862;4.320;2023-02-28T08:47:11;4.72;;;2.72;;
10761;SDS011;5433;50.862;4.320;2023-02-28T08:49:37;2.95;;;2.25;;
10761;SDS011;5433;50.862;4.320;2023-02-28T08:52:04;3.17;;;2.17;;
10761;SDS011;5433;50.862;4.320;2023-02-28T08:54:31;2.28;;;1.58;;
10761;SDS011;5433;50.862;4.320;2023-02-28T08:56:58;2.67;;;2.10;;
10761;SDS011;5433;50.862;4.320;2023-02-28T08:59:24;4.00;;;2.85;;
10761;SDS011;5433;50.862;4.320;2023-02-28T09:01:50;4.45;;;2.75;;
10761;SDS011;5433;50.862;4.320;2023-02-28T09:04:16;3.75;;;2.92;;
10761;SDS011;5433;50.862;4.320;2023-02-28T09:06:42;5.50;;;2.90;;
10761;SDS011;5433;50.862;4.320;2023-02-28T09:09:09;3.20;;;2.60;;
10761;SDS011;5433;50.862;4.320;2023-02-28T09:11:35;3.47;;;2.80;;
10761;SDS011;5433;50.862;4.320;2023-02-28T09:14:01;6.47;;;2.80;;
10761;SDS011;5433;50.862;4.320;2023-02-28T09:16:28;5.82;;;2.33;;
10761;SDS011;5433;50.862;4.320;2023-02-28T09:18:55;3.78;;;2.58;;
10761;SDS011;5433;50.862;4.320;2023-02-28T09:21:21;3.88;;;2.00;;
10761;SDS011;5433;50.862;4.320;2023-02-28T09:23:48;3.85;;;3.00;;
10761;SDS011;5433;50.862;4.320;2023-02-28T09:28:41;3.97;;;2.80;;
10761;SDS011;5433;50.862;4.320;2023-02-28T09:31:10;3.38;;;2.67;;
10761;SDS011;5433;50.862;4.320;2023-02-28T09:33:37;3.97;;;2.75;;
10761;SDS011;5433;50.862;4.320;2023-02-28T09:36:03;5.30;;;2.97;;
10761;SDS011;5433;50.862;4.320;2023-02-28T09:38:29;5.63;;;3.53;;
10761;SDS011;5433;50.862;4.320;2023-02-28T09:41:00;5.45;;;2.75;;
10761;SDS011;5433;50.862;4.320;2023-02-28T09:43:34;5.40;;;2.78;;
10761;SDS011;5433;50.862;4.320;2023-02-28T09:48:47;3.63;;;2.38;;
10761;SDS011;5433;50.862;4.320;2023-02-28T09:53:59;4.18;;;1.98;;
10761;SDS011;5433;50.862;4.320;2023-02-28T09:56:33;2.95;;;2.30;;
10761;SDS011;5433;50.862;4.320;2023-02-28T09:59:09;3.53;;;2.03;;
10761;SDS011;5433;50.862;4.320;2023-02-28T10:01:39;3.33;;;2.30;;
10761;SDS011;5433;50.862;4.320;2023-02-28T10:04:11;3.55;;;2.15;;
10761;SDS011;5433;50.862;4.320;2023-02-28T10:06:46;2.60;;;2.28;;
10761;SDS011;5433;50.862;4.320;2023-02-28T10:09:17;3.78;;;1.52;;
10761;SDS011;5433;50.862;4.320;2023-02-28T10:11:45;2.28;;;1.92;;
10761;SDS011;5433;50.862;4.320;2023-02-28T10:14:16;3.45;;;1.65;;
10761;SDS011;5433;50.862;4.320;2023-02-28T10:16:45;2.08;;;1.83;;
10761;SDS011;5433;50.862;4.320;2023-02-28T10:21:41;3.65;;;2.40;;
10761;SDS011;5433;50.862;4.320;2023-02-28T10:26:37;3.42;;;1.90;;
10761;SDS011;5433;50.862;4.320;2023-02-28T10:29:03;4.05;;;2.20;;
10761;SDS011;5433;50.862;4.320;2023-02-28T10:31:29;2.10;;;1.75;;
10761;SDS011;5433;50.862;4.320;2023-02-28T10:33:55;1.48;;;1.27;;
10761;SDS011;5433;50.862;4.320;2023-02-28T10:36:21;1.20;;;1.10;;
10761;SDS011;5433;50.862;4.320;2023-02-28T10:38:47;3.42;;;1.80;;
10761;SDS011;5433;50.862;4.320;2023-02-28T10:41:18;1.90;;;1.80;;
10761;SDS011;5433;50.862;4.320;2023-02-28T10:43:53;1.75;;;1.40;;
10761;SDS011;5433;50.862;4.320;2023-02-28T10:46:37;1.40;;;1.30;;
10761;SDS011;5433;50.862;4.320;2023-02-28T10:49:06;2.65;;;1.88;;
10761;SDS011;5433;50.862;4.320;2023-02-28T10:51:38;2.22;;;1.95;;
10761;SDS011;5433;50.862;4.320;2023-02-28T10:54:04;2.85;;;1.92;;
10761;SDS011;5433;50.862;4.320;2023-02-28T10:56:31;2.80;;;1.60;;
10761;SDS011;5433;50.862;4.320;2023-02-28T10:59:01;2.60;;;1.67;;
10761;SDS011;5433;50.862;4.320;2023-02-28T11:01:41;1.48;;;1.38;;
10761;SDS011;5433;50.862;4.320;2023-02-28T11:04:16;1.23;;;1.10;;
10761;SDS011;5433;50.862;4.320;2023-02-28T11:06:43;1.70;;;1.60;;
10761;SDS011;5433;50.862;4.320;2023-02-28T11:11:45;2.38;;;1.80;;
10761;SDS011;5433;50.862;4.320;2023-02-28T11:14:17;2.05;;;1.85;;
10761;SDS011;5433;50.862;4.320;2023-02-28T11:16:44;3.95;;;1.88;;
10761;SDS011;5433;50.862;4.320;2023-02-28T11:19:16;2.80;;;2.03;;
10761;SDS011;5433;50.862;4.320;2023-02-28T11:21:47;2.63;;;1.95;;
10761;SDS011;5433;50.862;4.320;2023-02-28T11:26:52;1.95;;;1.60;;
10761;SDS011;5433;50.862;4.320;2023-02-28T11:32:20;2.10;;;1.80;;
10761;SDS011;5433;50.862;4.320;2023-02-28T11:34:38;2.47;;;1.95;;
10761;SDS011;5433;50.862;4.320;2023-02-28T11:37:05;1.77;;;1.63;;
10761;SDS011;5433;50.862;4.320;2023-02-28T11:39:32;2.30;;;1.90;;
10761;SDS011;5433;50.862;4.320;2023-02-28T12:00:15;1.08;;;0.90;;
10761;SDS011;5433;50.862;4.320;2023-02-28T12:02:55;2.00;;;1.70;;
10761;SDS011;5433;50.862;4.320;2023-02-28T12:05:37;2.15;;;1.83;;
10761;SDS011;5433;50.862;4.320;2023-02-28T12:08:15;3.05;;;2.33;;
10761;SDS011;5433;50.862;4.320;2023-02-28T12:24:16;2.53;;;2.03;;
10761;SDS011;5433;50.862;4.320;2023-02-28T12:26:44;5.78;;;2.65;;
10761;SDS011;5433;50.862;4.320;2023-02-28T12:31:52;3.22;;;2.00;;
10761;SDS011;5433;50.862;4.320;2023-02-28T12:34:20;2.72;;;1.77;;
10761;SDS011;5433;50.862;4.320;2023-02-28T12:36:47;4.05;;;2.35;;
10761;SDS011;5433;50.862;4.320;2023-02-28T12:39:26;1.58;;;1.48;;
10761;SDS011;5433;50.862;4.320;2023-02-28T12:41:56;2.67;;;1.80;;
10761;SDS011;5433;50.862;4.320;2023-02-28T12:44:30;3.78;;;2.40;;
10761;SDS011;5433;50.862;4.320;2023-02-28T12:46:59;3.30;;;2.30;;
10761;SDS011;5433;50.862;4.320;2023-02-28T12:49:31;3.70;;;1.90;;
10761;SDS011;5433;50.862;4.320;2023-02-28T12:51:59;2.88;;;2.28;;
10761;SDS011;5433;50.862;4.320;2023-02-28T12:54:28;3.55;;;2.10;;
10761;SDS011;5433;50.862;4.320;2023-02-28T13:09:41;1.25;;;1.00;;
10761;SDS011;5433;50.862;4.320;2023-02-28T13:12:17;2.55;;;2.00;;
10761;SDS011;5433;50.862;4.320;2023-02-28T13:14:43;3.08;;;2.10;;
10761;SDS011;5433;50.862;4.320;2023-02-28T13:19:41;3.60;;;2.00;;
10761;SDS011;5433;50.862;4.320;2023-02-28T13:22:19;3.25;;;1.80;;
10761;SDS011;5433;50.862;4.320;2023-02-28T13:24:47;2.45;;;2.00;;
10761;SDS011;5433;50.862;4.320;2023-02-28T13:29:43;2.45;;;2.10;;
10761;SDS011;5433;50.862;4.320;2023-02-28T13:34:36;2.58;;;2.00;;
10761;SDS011;5433;50.862;4.320;2023-02-28T13:39:56;2.05;;;1.88;;
10761;SDS011;5433;50.862;4.320;2023-02-28T13:47:33;4.07;;;2.40;;
10761;SDS011;5433;50.862;4.320;2023-02-28T13:55:35;2.47;;;2.22;;
10761;SDS011;5433;50.862;4.320;2023-02-28T13:58:07;2.35;;;1.95;;
10761;SDS011;5433;50.862;4.320;2023-02-28T14:03:25;2.17;;;1.90;;
10761;SDS011;5433;50.862;4.320;2023-02-28T14:08:42;2.30;;;2.10;;
10761;SDS011;5433;50.862;4.320;2023-02-28T14:11:23;2.20;;;2.00;;
10761;SDS011;5433;50.862;4.320;2023-02-28T14:13:49;2.92;;;2.10;;
10761;SDS011;5433;50.862;4.320;2023-02-28T14:16:16;3.33;;;2.05;;
10761;SDS011;5433;50.862;4.320;2023-02-28T14:18:48;2.42;;;1.83;;
10761;SDS011;5433;50.862;4.320;2023-02-28T14:21:29;3.63;;;2.20;;
10761;SDS011;5433;50.862;4.320;2023-02-28T14:26:29;3.22;;;2.45;;
10761;SDS011;5433;50.862;4.320;2023-02-28T14:29:03;3.40;;;2.40;;
10761;SDS011;5433;50.862;4.320;2023-02-28T14:31:37;3.58;;;2.28;;
10761;SDS011;5433;50.862;4.320;2023-02-28T14:34:24;3.53;;;2.60;;
10761;SDS011;5433;50.862;4.320;2023-02-28T14:36:52;1.90;;;1.75;;
10761;SDS011;5433;50.862;4.320;2023-02-28T14:39:23;4.22;;;2.28;;
10761;SDS011;5433;50.862;4.320;2023-02-28T14:41:50;3.03;;;2.72;;
10761;SDS011;5433;50.862;4.320;2023-02-28T14:46:43;5.40;;;2.55;;
10761;SDS011;5433;50.862;4.320;2023-02-28T14:49:12;2.83;;;2.03;;
10761;SDS011;5433;50.862;4.320;2023-02-28T14:51:41;3.03;;;2.00;;
10761;SDS011;5433;50.862;4.320;2023-02-28T14:54:12;2.80;;;2.40;;
10761;SDS011;5433;50.862;4.320;2023-02-28T14:56:38;4.40;;;2.40;;
10761;SDS011;5433;50.862;4.320;2023-02-28T14:59:05;3.40;;;2.25;;
10761;SDS011;5433;50.862;4.320;2023-02-28T15:01:47;3.35;;;2.30;;
10761;SDS011;5433;50.862;4.320;2023-02-28T15:04:24;7.38;;;2.38;;
10761;SDS011;5433;50.862;4.320;2023-02-28T15:07:07;2.70;;;2.30;;
10761;SDS011;5433;50.862;4.320;2023-02-28T15:09:33;3.83;;;2.50;;
10761;SDS011;5433;50.862;4.320;2023-02-28T15:11:59;2.67;;;2.33;;
10761;SDS011;5433;50.862;4.320;2023-02-28T15:14:25;2.42;;;2.22;;
10761;SDS011;5433;50.862;4.320;2023-02-28T15:16:56;3.85;;;2.75;;
10761;SDS011;5433;50.862;4.320;2023-02-28T15:19:24;2.55;;;2.28;;
10761;SDS011;5433;50.862;4.320;2023-02-28T15:21:54;3.95;;;2.60;;
10761;SDS011;5433;50.862;4.320;2023-02-28T15:24:24;2.35;;;1.98;;
10761;SDS011;5433;50.862;4.320;2023-02-28T15:26:57;3.55;;;2.55;;
10761;SDS011;5433;50.862;4.320;2023-02-28T15:29:24;2.58;;;2.33;;
10761;SDS011;5433;50.862;4.320;2023-02-28T15:32:01;3.17;;;2.03;;
10761;SDS011;5433;50.862;4.320;2023-02-28T15:34:35;2.60;;;2.40;;
10761;SDS011;5433;50.862;4.320;2023-02-28T15:37:01;2.35;;;1.90;;
10761;SDS011;5433;50.862;4.320;2023-02-28T15:39:48;3.30;;;2.65;;
10761;SDS011;5433;50.862;4.320;2023-02-28T15:42:21;3.38;;;2.53;;
10761;SDS011;5433;50.862;4.320;2023-02-28T15:44:47;3.35;;;2.78;;
10761;SDS011;5433;50.862;4.320;2023-02-28T15:47:21;6.43;;;3.22;;
10761;SDS011;5433;50.862;4.320;2023-02-28T15:52:17;3.90;;;2.53;;
10761;SDS011;5433;50.862;4.320;2023-02-28T15:54:44;4.45;;;2.90;;
10761;SDS011;5433;50.862;4.320;2023-02-28T15:57:17;5.05;;;2.63;;
10761;SDS011;5433;50.862;4.320;2023-02-28T15:59:51;4.75;;;2.70;;
10761;SDS011;5433;50.862;4.320;2023-02-28T16:02:21;6.10;;;2.85;;
10761;SDS011;5433;50.862;4.320;2023-02-28T16:04:58;4.88;;;2.60;;
10761;SDS011;5433;50.862;4.320;2023-02-28T16:07:25;4.82;;;2.50;;
10761;SDS011;5433;50.862;4.320;2023-02-28T16:09:51;3.78;;;2.42;;
10761;SDS011;5433;50.862;4.320;2023-02-28T16:12:18;2.72;;;2.20;;
10761;SDS011;5433;50.862;4.320;2023-02-28T16:14:44;3.00;;;2.70;;
10761;SDS011;5433;50.862;4.320;2023-02-28T16:17:16;3.65;;;2.70;;
10761;SDS011;5433;50.862;4.320;2023-02-28T16:19:45;3.95;;;3.30;;
10761;SDS011;5433;50.862;4.320;2023-02-28T16:22:11;3.10;;;2.40;;
10761;SDS011;5433;50.862;4.320;2023-02-28T16:24:37;3.33;;;2.70;;
10761;SDS011;5433;50.862;4.320;2023-02-28T16:27:04;3.90;;;2.72;;
10761;SDS011;5433;50.862;4.320;2023-02-28T16:29:31;3.95;;;2.50;;
10761;SDS011;5433;50.862;4.320;2023-02-28T16:31:58;4.15;;;2.65;;
10761;SDS011;5433;50.862;4.320;2023-02-28T16:34:24;3.63;;;2.05;;
10761;SDS011;5433;50.862;4.320;2023-02-28T16:36:50;4.22;;;2.83;;
10761;SDS011;5433;50.862;4.320;2023-02-28T16:39:16;3.15;;;2.60;;
10761;SDS011;5433;50.862;4.320;2023-02-28T16:41:45;3.75;;;2.50;;
10761;SDS011;5433;50.862;4.320;2023-02-28T16:44:14;3.58;;;2.50;;
10761;SDS011;5433;50.862;4.320;2023-02-28T16:46:43;6.28;;;2.33;;
10761;SDS011;5433;50.862;4.320;2023-02-28T16:49:10;3.38;;;2.50;;
10761;SDS011;5433;50.862;4.320;2023-02-28T16:51:37;3.05;;;2.55;;
10761;SDS011;5433;50.862;4.320;2023-02-28T16:54:03;2.75;;;2.30;;
10761;SDS011;5433;50.862;4.320;2023-02-28T16:56:29;7.30;;;2.83;;
10761;SDS011;5433;50.862;4.320;2023-02-28T16:58:59;3.10;;;2.80;;
10761;SDS011;5433;50.862;4.320;2023-02-28T17:01:26;4.47;;;2.78;;
10761;SDS011;5433;50.862;4.320;2023-02-28T17:03:53;5.15;;;3.03;;
10761;SDS011;5433;50.862;4.320;2023-02-28T17:06:24;5.32;;;2.90;;
10761;SDS011;5433;50.862;4.320;2023-02-28T17:08:51;4.07;;;2.83;;
10761;SDS011;5433;50.862;4.320;2023-02-28T17:11:18;6.90;;;2.70;;